Etusivu
METAR-TAF:

METAR-TAF

Lentoasemat :

Aarhus, Tanska

Leveyspiiri: 56-18N, Pituuspiiri: 010-37E, korkeus merenpinnasta: 23 m

Tämänhetkinen sää

Tämä raportti tehtiin 35 minuuttia sitten, kello 23.50 UTC
Tuuli 2 kn lounaasta
Lämpötila -1°C
Kosteus 93%
Ilmanpaine 1009 hPa
Näkyvyys 10 km tai enemmän

METAR: EKAH 192350Z AUTO 23002KT 9999NDV NCD M01/M02 Q1009

Aika: 01:25 (00:25 UTC)

Sääennuste

Tämä raportti tehtiin 1 tunti ja 28 minuuttia sitten, kello 22.57 UTC
Ennuste voimassa 20. päivästä klo 00 UTC - 20. päivään klo 24 UTC
Tuuli 6 kn lännestä/luoteesta
Näkyvyys 10 km tai enemmän
Hajanaisia pilviä 3000 ft:n korkeudessa
Todennäköisyys 40%
20. päivästä klo 00 UTC - 20. päivään klo 09 UTC
Näkyvyys: 2000 m
Matala sumu

TAF: EKAH 192257Z 2000/2024 29006KT 9999 SCT030 PROB40 2000/2009 2000 MIFG

Säähavainnot ja -ennusteet yli 4000 lentoasemalta (METAR- ja TAF-raportit).

Käytössä olevat sääasemat on merkitty karttaan keltaisilla ja punaisilla pisteillä.

Aseta hiiri pisteen päälle nähdäksesi sääaseman nimen.

Klikkaa sitten nähdäksesi säähavainnot ja -ennusteet.

Kartan vaihtaminen: klikkaa mustalla rastilla varustettuja vihreitä pisteitä, niin voit zoomata sisään; viivalla varustettua vihreää pistettä, niin voit zoomata ulos tai vihreitä nuolia, niin pääset viereisille kartoille.


METAR-TAF: